sensor_id;sensor_type;location;lat;lon;timestamp;temperature;humidity
38936;DHT22;25541;47.458;9.644;2022-10-26T02:48:03;14.20;99.60
38936;DHT22;25541;47.458;9.644;2022-10-26T02:50:37;14.20;99.90
38936;DHT22;25541;47.458;9.644;2022-10-26T02:55:47;14.20;99.90
38936;DHT22;25541;47.458;9.644;2022-10-26T02:58:24;14.30;99.90
38936;DHT22;25541;47.458;9.644;2022-10-26T03:00:52;14.50;98.20
38936;DHT22;25541;47.458;9.644;2022-10-26T03:03:18;14.80;97.10
38936;DHT22;25541;47.458;9.644;2022-10-26T03:05:44;14.90;97.30
38936;DHT22;25541;47.458;9.644;2022-10-26T03:08:10;15.00;97.30
38936;DHT22;25541;47.458;9.644;2022-10-26T03:10:40;14.80;97.80
38936;DHT22;25541;47.458;9.644;2022-10-26T03:13:06;14.90;97.80
38936;DHT22;25541;47.458;9.644;2022-10-26T03:15:32;14.90;97.60
38936;DHT22;25541;47.458;9.644;2022-10-26T03:17:58;14.90;97.90
38936;DHT22;25541;47.458;9.644;2022-10-26T03:20:23;14.90;98.50
38936;DHT22;25541;47.458;9.644;2022-10-26T03:22:49;14.80;98.80
38936;DHT22;25541;47.458;9.644;2022-10-26T03:25:15;14.80;98.80
38936;DHT22;25541;47.458;9.644;2022-10-26T03:27:41;14.80;99.30
38936;DHT22;25541;47.458;9.644;2022-10-26T03:30:07;14.80;99.90
38936;DHT22;25541;47.458;9.644;2022-10-26T03:32:33;14.80;99.90
38936;DHT22;25541;47.458;9.644;2022-10-26T03:34:59;14.80;99.90
38936;DHT22;25541;47.458;9.644;2022-10-26T03:37:25;14.70;99.90
38936;DHT22;25541;47.458;9.644;2022-10-26T03:39:50;14.70;99.90
38936;DHT22;25541;47.458;9.644;2022-10-26T03:42:16;14.70;99.90
38936;DHT22;25541;47.458;9.644;2022-10-26T03:44:42;14.80;99.90
38936;DHT22;25541;47.458;9.644;2022-10-26T03:47:07;14.80;99.90
38936;DHT22;25541;47.458;9.644;2022-10-26T03:49:33;14.80;99.90
38936;DHT22;25541;47.458;9.644;2022-10-26T03:51:59;14.70;99.90
38936;DHT22;25541;47.458;9.644;2022-10-26T03:54:24;14.80;99.90
38936;DHT22;25541;47.458;9.644;2022-10-26T03:56:50;14.80;99.90
38936;DHT22;25541;47.458;9.644;2022-10-26T03:59:17;14.80;99.90
38936;DHT22;25541;47.458;9.644;2022-10-26T04:01:43;14.90;99.90
38936;DHT22;25541;47.458;9.644;2022-10-26T04:04:08;14.90;99.90
38936;DHT22;25541;47.458;9.644;2022-10-26T04:06:34;15.00;99.90
38936;DHT22;25541;47.458;9.644;2022-10-26T04:09:00;15.00;99.90
38936;DHT22;25541;47.458;9.644;2022-10-26T04:11:29;15.00;99.90
38936;DHT22;25541;47.458;9.644;2022-10-26T04:13:55;15.00;99.90
38936;DHT22;25541;47.458;9.644;2022-10-26T04:16:24;14.90;99.90
38936;DHT22;25541;47.458;9.644;2022-10-26T04:18:50;14.90;99.90
38936;DHT22;25541;47.458;9.644;2022-10-26T04:21:15;14.90;99.90
38936;DHT22;25541;47.458;9.644;2022-10-26T04:23:41;14.90;99.90
38936;DHT22;25541;47.458;9.644;2022-10-26T04:26:07;14.90;99.90
38936;DHT22;25541;47.458;9.644;2022-10-26T04:28:33;14.90;99.90
38936;DHT22;25541;47.458;9.644;2022-10-26T04:30:58;14.70;99.90
38936;DHT22;25541;47.458;9.644;2022-10-26T04:33:24;14.70;99.90
38936;DHT22;25541;47.458;9.644;2022-10-26T04:35:50;14.70;99.90
38936;DHT22;25541;47.458;9.644;2022-10-26T04:38:15;14.60;99.90
38936;DHT22;25541;47.458;9.644;2022-10-26T04:40:41;14.50;99.90
38936;DHT22;25541;47.458;9.644;2022-10-26T04:43:07;14.40;99.90
38936;DHT22;25541;47.458;9.644;2022-10-26T04:45:33;14.40;99.90
38936;DHT22;25541;47.458;9.644;2022-10-26T04:48:00;14.40;99.90
38936;DHT22;25541;47.458;9.644;2022-10-26T04:50:26;14.40;99.90
38936;DHT22;25541;47.458;9.644;2022-10-26T04:52:52;14.50;99.90
38936;DHT22;25541;47.458;9.644;2022-10-26T04:55:18;14.50;99.90
38936;DHT22;25541;47.458;9.644;2022-10-26T04:57:44;14.60;99.90
38936;DHT22;25541;47.458;9.644;2022-10-26T05:00:10;14.60;99.90
38936;DHT22;25541;47.458;9.644;2022-10-26T05:02:36;14.60;99.90
38936;DHT22;25541;47.458;9.644;2022-10-26T05:05:02;14.60;99.90
38936;DHT22;25541;47.458;9.644;2022-10-26T05:07:27;14.60;99.90
38936;DHT22;25541;47.458;9.644;2022-10-26T05:09:53;14.60;99.90
38936;DHT22;25541;47.458;9.644;2022-10-26T05:12:18;14.60;99.90
38936;DHT22;25541;47.458;9.644;2022-10-26T05:14:44;14.60;99.90
38936;DHT22;25541;47.458;9.644;2022-10-26T05:17:10;14.50;99.90
38936;DHT22;25541;47.458;9.644;2022-10-26T05:19:36;14.50;99.90
38936;DHT22;25541;47.458;9.644;2022-10-26T05:22:02;14.40;99.90
38936;DHT22;25541;47.458;9.644;2022-10-26T05:24:28;14.40;99.90
38936;DHT22;25541;47.458;9.644;2022-10-26T05:26:54;14.40;99.90
38936;DHT22;25541;47.458;9.644;2022-10-26T05:29:19;14.50;99.90
38936;DHT22;25541;47.458;9.644;2022-10-26T05:31:45;14.60;99.90
38936;DHT22;25541;47.458;9.644;2022-10-26T05:34:11;14.70;99.90
38936;DHT22;25541;47.458;9.644;2022-10-26T05:36:36;14.80;99.90
38936;DHT22;25541;47.458;9.644;2022-10-26T05:39:02;15.00;99.20
38936;DHT22;25541;47.458;9.644;2022-10-26T05:41:28;15.10;98.70
38936;DHT22;25541;47.458;9.644;2022-10-26T05:43:53;15.20;98.30
38936;DHT22;25541;47.458;9.644;2022-10-26T05:46:19;15.30;97.90
38936;DHT22;25541;47.458;9.644;2022-10-26T05:48:45;15.30;98.10
38936;DHT22;25541;47.458;9.644;2022-10-26T05:51:10;15.40;96.40
38936;DHT22;25541;47.458;9.644;2022-10-26T05:53:37;15.40;94.20
38936;DHT22;25541;47.458;9.644;2022-10-26T05:56:27;15.60;93.70
38936;DHT22;25541;47.458;9.644;2022-10-26T05:58:57;15.70;92.60
38936;DHT22;25541;47.458;9.644;2022-10-26T06:06:23;16.00;90.90
38936;DHT22;25541;47.458;9.644;2022-10-26T06:08:50;16.20;90.00
38936;DHT22;25541;47.458;9.644;2022-10-26T06:11:16;16.30;89.00
38936;DHT22;25541;47.458;9.644;2022-10-26T06:13:42;16.30;90.00
38936;DHT22;25541;47.458;9.644;2022-10-26T06:18:48;16.30;91.20
38936;DHT22;25541;47.458;9.644;2022-10-26T06:31:28;16.00;91.90
38936;DHT22;25541;47.458;9.644;2022-10-26T06:33:57;16.00;92.20
38936;DHT22;25541;47.458;9.644;2022-10-26T06:36:24;16.00;92.30
38936;DHT22;25541;47.458;9.644;2022-10-26T06:39:01;16.10;90.80
38936;DHT22;25541;47.458;9.644;2022-10-26T06:41:31;16.10;90.80
38936;DHT22;25541;47.458;9.644;2022-10-26T06:43:58;16.20;90.30
38936;DHT22;25541;47.458;9.644;2022-10-26T06:46:45;16.30;90.10
38936;DHT22;25541;47.458;9.644;2022-10-26T06:51:49;16.40;88.80
38936;DHT22;25541;47.458;9.644;2022-10-26T06:57:15;16.70;87.80
38936;DHT22;25541;47.458;9.644;2022-10-26T06:59:56;16.80;84.60
38936;DHT22;25541;47.458;9.644;2022-10-26T07:02:25;16.90;83.90
38936;DHT22;25541;47.458;9.644;2022-10-26T07:04:50;17.00;84.30
38936;DHT22;25541;47.458;9.644;2022-10-26T07:07:21;17.00;83.60
38936;DHT22;25541;47.458;9.644;2022-10-26T07:09:48;17.10;82.70
38936;DHT22;25541;47.458;9.644;2022-10-26T07:12:14;17.10;82.50
38936;DHT22;25541;47.458;9.644;2022-10-26T07:14:40;17.10;82.40
38936;DHT22;25541;47.458;9.644;2022-10-26T07:17:06;17.20;82.70
38936;DHT22;25541;47.458;9.644;2022-10-26T07:19:32;17.20;83.00
38936;DHT22;25541;47.458;9.644;2022-10-26T07:21:58;17.30;81.60
38936;DHT22;25541;47.458;9.644;2022-10-26T07:24:26;17.30;82.60
38936;DHT22;25541;47.458;9.644;2022-10-26T07:26:55;17.40;81.70
38936;DHT22;25541;47.458;9.644;2022-10-26T07:29:22;17.50;81.10
38936;DHT22;25541;47.458;9.644;2022-10-26T07:31:48;17.50;79.70
38936;DHT22;25541;47.458;9.644;2022-10-26T07:34:14;17.60;80.30
38936;DHT22;25541;47.458;9.644;2022-10-26T07:36:40;17.60;79.10
38936;DHT22;25541;47.458;9.644;2022-10-26T07:39:06;17.70;80.50
38936;DHT22;25541;47.458;9.644;2022-10-26T07:41:32;17.70;78.70
38936;DHT22;25541;47.458;9.644;2022-10-26T07:43:58;17.70;79.90
38936;DHT22;25541;47.458;9.644;2022-10-26T07:46:24;17.60;80.00
38936;DHT22;25541;47.458;9.644;2022-10-26T07:48:50;17.60;79.90
38936;DHT22;25541;47.458;9.644;2022-10-26T07:51:16;17.60;79.10
38936;DHT22;25541;47.458;9.644;2022-10-26T07:53:42;17.70;77.70
38936;DHT22;25541;47.458;9.644;2022-10-26T07:56:08;17.90;78.30
38936;DHT22;25541;47.458;9.644;2022-10-26T07:58:34;18.00;77.30
38936;DHT22;25541;47.458;9.644;2022-10-26T08:01:08;18.20;78.20
38936;DHT22;25541;47.458;9.644;2022-10-26T08:03:35;18.20;77.90
38936;DHT22;25541;47.458;9.644;2022-10-26T08:06:01;18.20;77.40
38936;DHT22;25541;47.458;9.644;2022-10-26T08:08:28;18.20;78.10
38936;DHT22;25541;47.458;9.644;2022-10-26T08:10:54;18.10;78.90
38936;DHT22;25541;47.458;9.644;2022-10-26T08:13:19;18.10;80.00
38936;DHT22;25541;47.458;9.644;2022-10-26T08:15:45;18.00;80.70
38936;DHT22;25541;47.458;9.644;2022-10-26T08:18:12;17.90;80.50
38936;DHT22;25541;47.458;9.644;2022-10-26T08:20:37;17.90;80.60
38936;DHT22;25541;47.458;9.644;2022-10-26T08:23:03;17.90;81.30
38936;DHT22;25541;47.458;9.644;2022-10-26T08:25:31;17.90;80.70
38936;DHT22;25541;47.458;9.644;2022-10-26T08:28:01;18.00;80.30
38936;DHT22;25541;47.458;9.644;2022-10-26T08:30:28;18.10;80.70
38936;DHT22;25541;47.458;9.644;2022-10-26T08:33:02;18.10;81.30
38936;DHT22;25541;47.458;9.644;2022-10-26T08:35:28;18.20;81.60
38936;DHT22;25541;47.458;9.644;2022-10-26T08:37:54;18.30;80.70
38936;DHT22;25541;47.458;9.644;2022-10-26T08:40:40;19.60;79.90
38936;DHT22;25541;47.458;9.644;2022-10-26T08:45:53;19.70;74.10
38936;DHT22;25541;47.458;9.644;2022-10-26T08:48:23;19.50;75.00
38936;DHT22;25541;47.458;9.644;2022-10-26T08:50:54;19.30;74.00
38936;DHT22;25541;47.458;9.644;2022-10-26T08:53:37;19.10;76.00
38936;DHT22;25541;47.458;9.644;2022-10-26T08:56:19;19.00;75.80
38936;DHT22;25541;47.458;9.644;2022-10-26T08:59:08;18.80;75.50
38936;DHT22;25541;47.458;9.644;2022-10-26T09:01:36;18.70;76.00
38936;DHT22;25541;47.458;9.644;2022-10-26T09:04:03;18.70;75.70
38936;DHT22;25541;47.458;9.644;2022-10-26T09:09:18;18.90;76.70
38936;DHT22;25541;47.458;9.644;2022-10-26T09:11:51;18.90;77.20
38936;DHT22;25541;47.458;9.644;2022-10-26T09:25:34;19.10;74.40
38936;DHT22;25541;47.458;9.644;2022-10-26T09:28:03;19.30;72.40
38936;DHT22;25541;47.458;9.644;2022-10-26T09:30:30;19.30;72.60
38936;DHT22;25541;47.458;9.644;2022-10-26T09:32:59;19.30;72.90
38936;DHT22;25541;47.458;9.644;2022-10-26T09:35:30;19.20;72.90
38936;DHT22;25541;47.458;9.644;2022-10-26T09:38:33;19.20;73.70
38936;DHT22;25541;47.458;9.644;2022-10-26T09:44:38;19.70;72.20
38936;DHT22;25541;47.458;9.644;2022-10-26T09:47:11;20.90;68.60
38936;DHT22;25541;47.458;9.644;2022-10-26T09:49:45;21.00;70.00
38936;DHT22;25541;47.458;9.644;2022-10-26T09:52:15;20.90;68.20
38936;DHT22;25541;47.458;9.644;2022-10-26T09:54:41;20.60;69.00
38936;DHT22;25541;47.458;9.644;2022-10-26T09:57:08;20.40;68.40
38936;DHT22;25541;47.458;9.644;2022-10-26T09:59:37;20.20;68.40
38936;DHT22;25541;47.458;9.644;2022-10-26T10:02:37;20.20;69.50
38936;DHT22;25541;47.458;9.644;2022-10-26T10:05:36;20.40;70.20
38936;DHT22;25541;47.458;9.644;2022-10-26T10:08:28;20.60;70.20
38936;DHT22;25541;47.458;9.644;2022-10-26T10:10:59;20.80;70.50
38936;DHT22;25541;47.458;9.644;2022-10-26T10:13:31;21.00;69.70
38936;DHT22;25541;47.458;9.644;2022-10-26T10:16:12;21.30;68.40
38936;DHT22;25541;47.458;9.644;2022-10-26T10:18:40;22.10;66.10
38936;DHT22;25541;47.458;9.644;2022-10-26T10:21:06;21.90;65.10
38936;DHT22;25541;47.458;9.644;2022-10-26T10:23:35;21.70;66.20
38936;DHT22;25541;47.458;9.644;2022-10-26T10:26:07;21.60;68.20
38936;DHT22;25541;47.458;9.644;2022-10-26T10:28:33;21.50;68.80
38936;DHT22;25541;47.458;9.644;2022-10-26T10:31:05;21.60;68.30
38936;DHT22;25541;47.458;9.644;2022-10-26T10:33:33;21.60;67.90
38936;DHT22;25541;47.458;9.644;2022-10-26T10:35:59;21.50;69.70
38936;DHT22;25541;47.458;9.644;2022-10-26T10:38:26;21.20;73.00
38936;DHT22;25541;47.458;9.644;2022-10-26T10:40:58;21.00;74.20
38936;DHT22;25541;47.458;9.644;2022-10-26T10:43:25;20.80;74.20
38936;DHT22;25541;47.458;9.644;2022-10-26T10:45:53;20.90;74.90
38936;DHT22;25541;47.458;9.644;2022-10-26T10:48:22;21.00;74.70
38936;DHT22;25541;47.458;9.644;2022-10-26T10:50:56;21.10;73.60
38936;DHT22;25541;47.458;9.644;2022-10-26T10:53:36;21.10;73.80
38936;DHT22;25541;47.458;9.644;2022-10-26T11:01:38;21.00;73.50
38936;DHT22;25541;47.458;9.644;2022-10-26T11:06:50;20.90;73.90
38936;DHT22;25541;47.458;9.644;2022-10-26T11:09:23;21.00;75.80
38936;DHT22;25541;47.458;9.644;2022-10-26T11:11:58;21.00;74.80
38936;DHT22;25541;47.458;9.644;2022-10-26T11:17:10;20.90;74.00
38936;DHT22;25541;47.458;9.644;2022-10-26T11:19:49;20.90;74.30
38936;DHT22;25541;47.458;9.644;2022-10-26T11:22:22;20.90;75.20
38936;DHT22;25541;47.458;9.644;2022-10-26T11:27:20;21.00;75.20
38936;DHT22;25541;47.458;9.644;2022-10-26T11:32:36;21.30;68.90
38936;DHT22;25541;47.458;9.644;2022-10-26T11:40:44;21.70;67.70
38936;DHT22;25541;47.458;9.644;2022-10-26T11:48:46;21.50;65.50
38936;DHT22;25541;47.458;9.644;2022-10-26T11:51:20;21.40;65.90
38936;DHT22;25541;47.458;9.644;2022-10-26T11:53:48;21.30;65.60
38936;DHT22;25541;47.458;9.644;2022-10-26T11:56:30;21.30;66.10
38936;DHT22;25541;47.458;9.644;2022-10-26T11:58:57;21.30;65.60
38936;DHT22;25541;47.458;9.644;2022-10-26T12:01:25;21.30;65.60
38936;DHT22;25541;47.458;9.644;2022-10-26T12:03:53;21.40;65.30
38936;DHT22;25541;47.458;9.644;2022-10-26T12:06:24;21.50;64.70
38936;DHT22;25541;47.458;9.644;2022-10-26T12:09:04;21.70;65.20
38936;DHT22;25541;47.458;9.644;2022-10-26T12:14:32;22.00;63.80
38936;DHT22;25541;47.458;9.644;2022-10-26T12:23:04;22.20;63.70
38936;DHT22;25541;47.458;9.644;2022-10-26T12:25:30;22.20;64.80
38936;DHT22;25541;47.458;9.644;2022-10-26T12:27:56;22.20;64.10
38936;DHT22;25541;47.458;9.644;2022-10-26T12:30:30;22.10;63.60
38936;DHT22;25541;47.458;9.644;2022-10-26T12:33:26;22.00;65.10
38936;DHT22;25541;47.458;9.644;2022-10-26T12:35:49;22.00;64.20
38936;DHT22;25541;47.458;9.644;2022-10-26T12:40:47;21.80;67.20
38936;DHT22;25541;47.458;9.644;2022-10-26T12:45:42;21.70;66.00
38936;DHT22;25541;47.458;9.644;2022-10-26T12:48:43;21.60;66.10
38936;DHT22;25541;47.458;9.644;2022-10-26T12:59:36;21.40;66.30
38936;DHT22;25541;47.458;9.644;2022-10-26T13:07:51;21.00;66.00
38936;DHT22;25541;47.458;9.644;2022-10-26T13:10:25;20.90;65.60
38936;DHT22;25541;47.458;9.644;2022-10-26T13:12:54;21.00;65.80
38936;DHT22;25541;47.458;9.644;2022-10-26T13:15:21;21.00;66.30
38936;DHT22;25541;47.458;9.644;2022-10-26T13:18:00;21.10;65.80
38936;DHT22;25541;47.458;9.644;2022-10-26T13:20:29;21.30;66.50
38936;DHT22;25541;47.458;9.644;2022-10-26T13:22:55;21.50;65.10
38936;DHT22;25541;47.458;9.644;2022-10-26T13:25:29;21.60;64.30
38936;DHT22;25541;47.458;9.644;2022-10-26T13:28:08;21.60;63.80
38936;DHT22;25541;47.458;9.644;2022-10-26T13:30:51;21.60;62.60
38936;DHT22;25541;47.458;9.644;2022-10-26T13:33:20;21.60;64.30
38936;DHT22;25541;47.458;9.644;2022-10-26T13:35:47;21.50;63.50
38936;DHT22;25541;47.458;9.644;2022-10-26T13:38:18;21.50;64.30
38936;DHT22;25541;47.458;9.644;2022-10-26T13:40:44;21.40;65.80
38936;DHT22;25541;47.458;9.644;2022-10-26T13:43:18;21.30;66.10
38936;DHT22;25541;47.458;9.644;2022-10-26T13:45:56;21.30;66.00
38936;DHT22;25541;47.458;9.644;2022-10-26T13:48:36;21.20;66.30
38936;DHT22;25541;47.458;9.644;2022-10-26T13:51:27;21.00;66.90
38936;DHT22;25541;47.458;9.644;2022-10-26T13:53:58;21.10;67.00
38936;DHT22;25541;47.458;9.644;2022-10-26T13:56:32;21.00;67.50
38936;DHT22;25541;47.458;9.644;2022-10-26T13:59:09;21.00;66.60
38936;DHT22;25541;47.458;9.644;2022-10-26T14:01:36;21.00;67.70
38936;DHT22;25541;47.458;9.644;2022-10-26T14:04:15;21.00;67.90
38936;DHT22;25541;47.458;9.644;2022-10-26T14:06:48;21.00;67.80
38936;DHT22;25541;47.458;9.644;2022-10-26T14:09:15;21.00;67.90
38936;DHT22;25541;47.458;9.644;2022-10-26T14:14:20;21.00;67.80
38936;DHT22;25541;47.458;9.644;2022-10-26T14:16:49;20.90;68.30
38936;DHT22;25541;47.458;9.644;2022-10-26T14:19:32;20.90;68.20
38936;DHT22;25541;47.458;9.644;2022-10-26T14:21:59;20.80;68.20
38936;DHT22;25541;47.458;9.644;2022-10-26T14:24:29;20.70;69.20
38936;DHT22;25541;47.458;9.644;2022-10-26T14:26:55;20.70;68.80
38936;DHT22;25541;47.458;9.644;2022-10-26T14:29:23;20.70;68.40
38936;DHT22;25541;47.458;9.644;2022-10-26T14:31:50;20.70;68.40
38936;DHT22;25541;47.458;9.644;2022-10-26T14:34:17;20.60;68.40
38936;DHT22;25541;47.458;9.644;2022-10-26T14:36:53;20.60;69.20
38936;DHT22;25541;47.458;9.644;2022-10-26T14:39:30;20.60;68.90
38936;DHT22;25541;47.458;9.644;2022-10-26T14:42:00;20.60;68.80
38936;DHT22;25541;47.458;9.644;2022-10-26T14:44:27;20.60;68.80
38936;DHT22;25541;47.458;9.644;2022-10-26T14:46:53;20.50;68.70
38936;DHT22;25541;47.458;9.644;2022-10-26T14:49:23;20.50;69.50
38936;DHT22;25541;47.458;9.644;2022-10-26T14:51:58;20.50;69.60
38936;DHT22;25541;47.458;9.644;2022-10-26T14:54:27;20.50;69.60
38936;DHT22;25541;47.458;9.644;2022-10-26T14:56:53;20.40;70.10
38936;DHT22;25541;47.458;9.644;2022-10-26T14:59:31;20.40;70.10
38936;DHT22;25541;47.458;9.644;2022-10-26T15:01:58;20.40;70.40
38936;DHT22;25541;47.458;9.644;2022-10-26T15:05:02;20.30;70.40
38936;DHT22;25541;47.458;9.644;2022-10-26T15:07:37;20.30;71.00
38936;DHT22;25541;47.458;9.644;2022-10-26T15:12:51;20.10;72.40
38936;DHT22;25541;47.458;9.644;2022-10-26T15:15:18;20.10;72.40
38936;DHT22;25541;47.458;9.644;2022-10-26T15:17:55;20.00;75.90
38936;DHT22;25541;47.458;9.644;2022-10-26T15:20:23;20.00;74.70
38936;DHT22;25541;47.458;9.644;2022-10-26T15:22:54;19.90;74.00
38936;DHT22;25541;47.458;9.644;2022-10-26T15:25:26;19.80;74.10
38936;DHT22;25541;47.458;9.644;2022-10-26T15:27:53;19.70;74.90
38936;DHT22;25541;47.458;9.644;2022-10-26T15:30:26;19.70;75.20
38936;DHT22;25541;47.458;9.644;2022-10-26T15:32:53;19.60;75.10
38936;DHT22;25541;47.458;9.644;2022-10-26T15:35:25;19.50;76.10
38936;DHT22;25541;47.458;9.644;2022-10-26T15:37:52;19.40;75.80
38936;DHT22;25541;47.458;9.644;2022-10-26T15:40:19;19.40;76.70
38936;DHT22;25541;47.458;9.644;2022-10-26T15:42:49;19.30;77.20
38936;DHT22;25541;47.458;9.644;2022-10-26T15:45:23;19.30;77.30
38936;DHT22;25541;47.458;9.644;2022-10-26T15:47:50;19.20;77.80
38936;DHT22;25541;47.458;9.644;2022-10-26T15:50:22;19.10;78.70
38936;DHT22;25541;47.458;9.644;2022-10-26T15:52:49;18.90;79.40
38936;DHT22;25541;47.458;9.644;2022-10-26T15:55:19;18.80;79.80
38936;DHT22;25541;47.458;9.644;2022-10-26T15:57:46;18.80;80.40
38936;DHT22;25541;47.458;9.644;2022-10-26T16:00:16;18.70;79.90
38936;DHT22;25541;47.458;9.644;2022-10-26T16:02:43;18.70;79.80
38936;DHT22;25541;47.458;9.644;2022-10-26T16:05:11;18.70;79.80
38936;DHT22;25541;47.458;9.644;2022-10-26T16:07:38;18.70;79.60
38936;DHT22;25541;47.458;9.644;2022-10-26T16:10:04;18.70;79.70
38936;DHT22;25541;47.458;9.644;2022-10-26T16:12:30;18.70;79.50
38936;DHT22;25541;47.458;9.644;2022-10-26T16:14:56;18.70;80.50
38936;DHT22;25541;47.458;9.644;2022-10-26T16:17:21;18.50;81.30
38936;DHT22;25541;47.458;9.644;2022-10-26T16:19:47;18.30;81.20
38936;DHT22;25541;47.458;9.644;2022-10-26T16:22:13;18.20;81.20
38936;DHT22;25541;47.458;9.644;2022-10-26T16:24:38;18.20;81.30
38936;DHT22;25541;47.458;9.644;2022-10-26T16:27:04;18.20;81.60
38936;DHT22;25541;47.458;9.644;2022-10-26T16:29:30;18.20;81.30
38936;DHT22;25541;47.458;9.644;2022-10-26T16:31:56;18.10;81.90
38936;DHT22;25541;47.458;9.644;2022-10-26T16:34:21;18.00;82.80
38936;DHT22;25541;47.458;9.644;2022-10-26T16:36:47;17.80;84.30
38936;DHT22;25541;47.458;9.644;2022-10-26T16:39:13;17.60;86.10
38936;DHT22;25541;47.458;9.644;2022-10-26T16:41:38;17.40;86.80
38936;DHT22;25541;47.458;9.644;2022-10-26T16:44:04;17.20;87.20
38936;DHT22;25541;47.458;9.644;2022-10-26T16:46:29;17.10;88.10
38936;DHT22;25541;47.458;9.644;2022-10-26T16:48:55;17.00;88.40
38936;DHT22;25541;47.458;9.644;2022-10-26T16:51:23;16.80;89.40
38936;DHT22;25541;47.458;9.644;2022-10-26T16:53:52;16.70;89.90
38936;DHT22;25541;47.458;9.644;2022-10-26T16:56:21;16.60;90.30
38936;DHT22;25541;47.458;9.644;2022-10-26T16:58:47;16.60;90.20
38936;DHT22;25541;47.458;9.644;2022-10-26T17:01:14;16.60;89.80
38936;DHT22;25541;47.458;9.644;2022-10-26T17:03:47;16.60;88.70
38936;DHT22;25541;47.458;9.644;2022-10-26T17:06:13;16.80;87.90
38936;DHT22;25541;47.458;9.644;2022-10-26T17:08:39;16.80;87.50
38936;DHT22;25541;47.458;9.644;2022-10-26T17:11:06;16.90;86.80
38936;DHT22;25541;47.458;9.644;2022-10-26T17:13:32;16.90;86.40
38936;DHT22;25541;47.458;9.644;2022-10-26T17:16:02;16.90;86.30
38936;DHT22;25541;47.458;9.644;2022-10-26T17:18:28;16.80;86.20
38936;DHT22;25541;47.458;9.644;2022-10-26T17:20:54;16.80;86.30
38936;DHT22;25541;47.458;9.644;2022-10-26T17:23:20;16.70;86.40
38936;DHT22;25541;47.458;9.644;2022-10-26T17:25:45;16.70;86.60
38936;DHT22;25541;47.458;9.644;2022-10-26T17:28:12;16.60;88.30
38936;DHT22;25541;47.458;9.644;2022-10-26T17:30:38;16.60;89.90
38936;DHT22;25541;47.458;9.644;2022-10-26T17:33:04;16.50;91.00
38936;DHT22;25541;47.458;9.644;2022-10-26T17:35:32;16.50;91.70
38936;DHT22;25541;47.458;9.644;2022-10-26T17:37:58;16.50;92.10
38936;DHT22;25541;47.458;9.644;2022-10-26T17:40:24;16.50;92.30
38936;DHT22;25541;47.458;9.644;2022-10-26T17:42:49;16.40;92.40
38936;DHT22;25541;47.458;9.644;2022-10-26T17:45:15;16.40;92.70
38936;DHT22;25541;47.458;9.644;2022-10-26T17:47:41;16.30;93.00
38936;DHT22;25541;47.458;9.644;2022-10-26T17:50:07;16.30;93.60
38936;DHT22;25541;47.458;9.644;2022-10-26T17:52:32;16.20;93.90
38936;DHT22;25541;47.458;9.644;2022-10-26T17:54:58;16.10;94.00
38936;DHT22;25541;47.458;9.644;2022-10-26T17:57:24;16.10;94.30
38936;DHT22;25541;47.458;9.644;2022-10-26T17:59:49;16.00;94.70
38936;DHT22;25541;47.458;9.644;2022-10-26T18:02:15;15.90;94.70
38936;DHT22;25541;47.458;9.644;2022-10-26T18:04:40;15.80;95.00
38936;DHT22;25541;47.458;9.644;2022-10-26T18:07:06;15.80;95.00
38936;DHT22;25541;47.458;9.644;2022-10-26T18:09:32;15.80;94.70
38936;DHT22;25541;47.458;9.644;2022-10-26T18:11:57;15.70;94.60
38936;DHT22;25541;47.458;9.644;2022-10-26T18:14:23;15.70;94.70
38936;DHT22;25541;47.458;9.644;2022-10-26T18:16:49;15.60;94.80
38936;DHT22;25541;47.458;9.644;2022-10-26T18:19:15;15.70;94.80
38936;DHT22;25541;47.458;9.644;2022-10-26T18:21:40;15.60;94.80
38936;DHT22;25541;47.458;9.644;2022-10-26T18:24:06;15.60;95.00
38936;DHT22;25541;47.458;9.644;2022-10-26T18:26:32;15.60;95.00
38936;DHT22;25541;47.458;9.644;2022-10-26T18:29:00;15.50;94.90
38936;DHT22;25541;47.458;9.644;2022-10-26T18:31:27;15.50;94.80
38936;DHT22;25541;47.458;9.644;2022-10-26T18:33:54;15.50;94.80
38936;DHT22;25541;47.458;9.644;2022-10-26T18:36:20;15.50;94.50
38936;DHT22;25541;47.458;9.644;2022-10-26T18:38:46;15.50;94.40
38936;DHT22;25541;47.458;9.644;2022-10-26T18:41:13;15.50;94.10
38936;DHT22;25541;47.458;9.644;2022-10-26T18:43:40;15.50;94.20
38936;DHT22;25541;47.458;9.644;2022-10-26T18:46:14;15.50;94.20
38936;DHT22;25541;47.458;9.644;2022-10-26T18:48:40;15.60;94.20
38936;DHT22;25541;47.458;9.644;2022-10-26T18:51:12;15.60;94.00
38936;DHT22;25541;47.458;9.644;2022-10-26T18:53:40;15.60;94.20
38936;DHT22;25541;47.458;9.644;2022-10-26T18:56:13;15.60;94.20
38936;DHT22;25541;47.458;9.644;2022-10-26T18:58:41;15.60;94.30
38936;DHT22;25541;47.458;9.644;2022-10-26T19:01:14;15.60;94.40
38936;DHT22;25541;47.458;9.644;2022-10-26T19:03:41;15.50;94.30
38936;DHT22;25541;47.458;9.644;2022-10-26T19:06:15;15.50;94.30
38936;DHT22;25541;47.458;9.644;2022-10-26T19:08:42;15.50;94.20
38936;DHT22;25541;47.458;9.644;2022-10-26T19:11:10;15.60;94.00
38936;DHT22;25541;47.458;9.644;2022-10-26T19:13:36;15.60;93.90
38936;DHT22;25541;47.458;9.644;2022-10-26T19:16:23;15.60;93.70
38936;DHT22;25541;47.458;9.644;2022-10-26T19:18:49;15.60;93.50
38936;DHT22;25541;47.458;9.644;2022-10-26T19:21:18;15.60;93.30
38936;DHT22;25541;47.458;9.644;2022-10-26T19:23:48;15.60;93.20
38936;DHT22;25541;47.458;9.644;2022-10-26T19:26:15;15.70;93.10
38936;DHT22;25541;47.458;9.644;2022-10-26T19:28:41;15.70;93.30
38936;DHT22;25541;47.458;9.644;2022-10-26T19:31:09;15.60;92.90
38936;DHT22;25541;47.458;9.644;2022-10-26T19:33:35;15.60;93.00
38936;DHT22;25541;47.458;9.644;2022-10-26T19:36:03;15.60;92.80
38936;DHT22;25541;47.458;9.644;2022-10-26T19:38:29;15.60;92.90
38936;DHT22;25541;47.458;9.644;2022-10-26T19:41:00;15.60;92.70
38936;DHT22;25541;47.458;9.644;2022-10-26T19:43:27;15.60;92.60
38936;DHT22;25541;47.458;9.644;2022-10-26T19:45:56;15.60;92.60
38936;DHT22;25541;47.458;9.644;2022-10-26T19:48:23;15.70;92.40
38936;DHT22;25541;47.458;9.644;2022-10-26T19:50:50;15.70;92.40
38936;DHT22;25541;47.458;9.644;2022-10-26T19:53:17;15.70;92.40
38936;DHT22;25541;47.458;9.644;2022-10-26T19:55:43;15.60;92.10
38936;DHT22;25541;47.458;9.644;2022-10-26T19:58:10;15.70;92.20
38936;DHT22;25541;47.458;9.644;2022-10-26T20:00:36;15.70;92.00
38936;DHT22;25541;47.458;9.644;2022-10-26T20:03:02;15.70;92.00
38936;DHT22;25541;47.458;9.644;2022-10-26T20:05:29;15.70;92.00
38936;DHT22;25541;47.458;9.644;2022-10-26T20:07:54;15.70;92.00
38936;DHT22;25541;47.458;9.644;2022-10-26T20:10:20;15.80;91.80
38936;DHT22;25541;47.458;9.644;2022-10-26T20:12:46;15.80;91.60
38936;DHT22;25541;47.458;9.644;2022-10-26T20:15:12;15.80;91.50